• Join FlightAware (Why Join?)
  • Login
  • US Flag 
08:05PM EDT


 

Airport Tracker/Info


-or-


 

Live Flight TrackerFlight Track Log ✈ EJA831 ✈ 09-Jun-2013 ✈ KSTL - KDET

Flight Track Log - Related Links

Times and Time Zones

All times are in EDT time to prevent confusion due to time zone crossing. See the EJA831 flight status page for this flight to view local times or setup timezone preferences in your user account.

Time Position Orientation Groundspeed Altitude Reporting Facility
EDT Latitude Longitude Course Direction KTS MPH feet Rate Location/Type
05:06PM 38.8833 -90.4167 349° North 275 316 8,400  Level Gateway (St. Louis) TRACON
05:07PM 38.9333 -90.4000 15° North 308 354 11,400 3,420 Climbing Gateway (St. Louis) TRACON
05:07PM 38.9456 -90.3700 62° Northeast 288 331 12,200 2,040 Climbing Kansas City Center
05:08PM 38.9358 -90.2617 97° East 307 353 14,200 1,260 Climbing Kansas City Center
05:09PM 38.9106 -90.1450 106° East 323 372 14,900 480 Climbing Kansas City Center
05:10PM 38.9805 -89.9518 54° Northeast  Level Estimated
05:10PM 38.8842 -90.0214 105° East 342 394 15,200  Level Kansas City Center
05:11PM 38.8589 -89.8947 104° East 359 413 16,800 1,740 Climbing Kansas City Center
05:12PM 38.8325 -89.7711 105° East 361 415 18,800 2,400 Climbing Kansas City Center
05:13PM 38.8036 -89.6328 105° East 349 402 21,800 2,400 Climbing Kansas City Center
05:14PM 38.7942 -89.4947 95° East 379 436 23,900 1,980 Climbing Kansas City Center
05:15PM 38.8117 -89.3583 81° East 389 448 25,900 1,740 Climbing Kansas City Center
05:16PM 38.8300 -89.2086 81° East 394 453 27,600 1,260 Climbing Kansas City Center
05:17PM 38.8481 -89.0672 81° East 399 459 28,600 720 Climbing Kansas City Center
05:18PM 38.8792 -88.9481 71° East 411 473 29,100 480 Climbing Kansas City Center
05:20PM 38.9661 -88.8003 53° Northeast 430 495 29,700 540 Climbing Kansas City Center
05:21PM 39.0414 -88.6761 52° Northeast 438 504 30,300 600 Climbing Kansas City Center
05:22PM 39.1136 -88.5536 53° Northeast 438 504 31,000 660 Climbing Kansas City Center
05:23PM 39.1875 -88.4264 53° Northeast 440 506 31,700 780 Climbing Kansas City Center
05:24PM 39.2606 -88.2997 53° Northeast 438 504 32,700 600 Climbing Kansas City Center
05:25PM 39.3381 -88.1653 53° Northeast 444 511 33,000 180 Climbing Kansas City Center
05:25PM 39.3978 -88.0611 53° Northeast 489 563 33,000  Level Indianapolis Center
05:26PM 39.4972 -87.8881 53° Northeast 501 577 33,000  Level Indianapolis Center
05:27PM 39.5783 -87.7447 54° Northeast 498 573 33,000  Level Indianapolis Center
05:28PM 39.6603 -87.6028 53° Northeast 492 566 33,000  Level Indianapolis Center
05:29PM 39.7492 -87.4658 50° Northeast 500 575 33,000  Level Indianapolis Center
05:30PM 39.8614 -87.3611 36° Northeast 497 572 33,000  Level Indianapolis Center
05:32PM 39.9739 -87.2547 36° Northeast 498 573 33,000  Level Indianapolis Center
05:33PM 40.0861 -87.1475 36° Northeast 498 573 33,000  Level Indianapolis Center
05:34PM 40.1669 -87.0022 54° Northeast 496 571 33,000  Level Chicago Center
05:35PM 40.2372 -86.8492 59° Northeast 491 565 33,000  Level Chicago Center
05:36PM 40.3214 -86.6653 59° Northeast 489 563 33,000  Level Chicago Center
05:37PM 40.3914 -86.5117 59° Northeast 489 563 33,000  Level Chicago Center
05:38PM 40.4611 -86.3594 59° Northeast 486 559 33,000  Level Chicago Center
05:39PM 40.5297 -86.2075 59° Northeast 484 557 33,000 -900 Level Chicago Center
05:40PM 40.5978 -86.0569 59° Northeast 481 554 31,200 -1,860 Descending Chicago Center
05:41PM 40.6639 -85.9064 60° Northeast 476 548 29,200 -2,040 Descending Chicago Center
05:42PM 40.7406 -85.7325 60° Northeast 480 552 27,000 -1,920 Descending Chicago Center
05:43PM 40.8069 -85.5833 60° Northeast 477 549 25,200 -1,800 Descending Chicago Center
05:44PM 40.8706 -85.4369 60° Northeast 465 535 23,400 -1,620 Descending Chicago Center
05:45PM 40.9289 -85.3014 60° Northeast 436 502 21,900 -1,620 Descending Chicago Center
05:46PM 40.9947 -85.1389 62° Northeast 423 487 20,100 -1,620 Descending Chicago Center
05:47PM 41.0347 -85.0069 68° East 398 458 18,600 -1,500 Descending Chicago Center
05:48PM 41.0769 -84.8728 67° East 397 457 17,100 -780 Descending Chicago Center
05:49PM 41.1189 -84.7400 67° East 393 452 17,000 -60 Descending Chicago Center
05:50PM 41.1597 -84.6067 68° East 393 452 17,000 -780 Level Chicago Center
05:51PM 41.2086 -84.4456 68° East 396 456 15,500 -1,500 Descending Chicago Center
05:52PM 41.2497 -84.3136 67° East 390 449 14,000 -1,440 Descending Chicago Center
05:53PM 41.2883 -84.1836 68° East 382 440 12,500 -1,440 Descending Chicago Center
05:54PM 41.3278 -84.0594 67° East 375 432 11,000 -1,260 Descending Chicago Center
05:55PM 41.3644 -83.9394 68° East 365 420 9,900 -540 Descending Chicago Center
05:56PM 41.4003 -83.8150 69° East 322 371 10,000  Climbing Chicago Center
05:57PM 41.4364 -83.6881 69° East 324 373 10,000  Level Cleveland Center
05:58PM 41.4769 -83.5708 65° Northeast 329 379 10,000  Level Cleveland Center
05:59PM 41.5214 -83.4592 62° Northeast 329 379 10,000 -60 Level Cleveland Center
06:00PM 41.5636 -83.3528 62° Northeast 341 392 9,900 60 Descending Cleveland Center
06:01PM 41.5792 -83.3175 59° Northeast 349 402 10,100 60 Climbing Cleveland Center
06:01PM 41.6081 -83.2408 63° Northeast 341 392 10,000 -240 Descending Cleveland Center
06:02PM 41.6478 -83.1508 59° Northeast 295 339 9,800 -1,800 Descending Cleveland Center
06:03PM 41.6786 -83.0686 63° Northeast 292 336 7,100 -2,460 Descending Cleveland Center
06:04PM 41.7244 -82.9758 56° Northeast 274 315 5,100 -960 Descending Cleveland Center
06:05PM 41.8100 -82.9706 North 292 336 5,100 -60 Level Cleveland Center
06:06PM 41.8933 -82.9794 355° North 290 334 5,000 -60 Descending Cleveland Center
06:07PM 41.9725 -82.9822 359° North 289 333 5,000 -300 Level Cleveland Center
06:08PM 42.0536 -82.9908 355° North 290 334 4,500 -540 Descending Cleveland Center
06:09PM 42.1389 -82.9942 358° North 284 327 4,000 -300 Descending Cleveland Center
06:10PM 42.2158 -83.0028 355° North 284 327 4,000 -480 Level Cleveland Center
06:11PM 42.3056 -83.0033 360° North 274 315 3,100 -720 Descending Cleveland Center
06:12PM 42.3647 -83.0617 324° Northwest 240 276 2,500 -480 Descending Cleveland Center
06:13PM 42.4139 -83.1003 330° Northwest 204 235 2,200 -540 Descending Cleveland Center
06:14PM 42.4378 -83.0533 55° Northeast 142 163 1,500 -720 Descending Cleveland Center
06:16PM 42.4093 -83.0102 90° East  Level Estimated
06:23PM 42.4093 -83.0102 90° East  Level Estimated